罗盘
风向 的 风向 的 风向 到 风向 280° Aérodrome d'Andernos 13/31
风: 8 kt, 3 beaufort

7 kt

4 kt
改变
0 1.000 2.000 3.000 4.000 5.000
N/A
METAR LFBC 161300Z AUTO 28008KT 240V320 9999 ////// 25/17 Q1008

METAR Aérodrome d'Andernos - LFCD

Aérodrome d'Andernos是Andernos-les-Bains,法国中的小机场。 该机场有一条跑道: 13/31. 该领域的国际民航组织标志是LFCD.

这份报告是针对2022年8月16日 15:00, 当地时间在Cazaux (BA 120) Air Base进行的。

机场观察

风向为280°,速度为8 kt。 风向在240°和320°之间变化。

可见度为10 km 或者更多。

有。 没有观察到天花板。

温度和风寒是25 °C。 露点为17 °C,相对湿度为61%。 海平面上的气压为1008 hPa (QNH)。

白天

今天,太阳从07:07升起,在21:09降落。 这适用于Aérodrome d'Andernos,世界夏令时可能有所不同。 当地时间与世界标准时间之间的时差为+2 小时。 夏令时目前正在进行中。

公司介绍

在这个机场,你可以找到飞行俱乐部。 这个机场上的公司有Aéroclub d'Andernos 和 HELI'S COOL 'Héliclub du Bassin d'Arcachon'。

体会

到Vliegles.nl去找飞行课程,跳伞和其他飞行体验。 浏览页面,了解Aérodrome d'Andernos附近所有可用的活动。 你也可以使用搜索功能来寻找你所在地附近的特定飞行课程、跳伞或其他飞行体验。

跑道

Id 标题 侧风 逆风 侧风 %
13/31 130°-310° 4 kt 7 kt 50 %

逆风成分最大的方向会被突出显示,并用于横风计算。 这并不一定意味着这个方向在使用。

乌云

0 ft

温度 & 天气

温度 25 °C
露点 17 °C
相对湿度 61%
Kp-index 0  

白天

日出
07:08
中午
14:08
日落
21:09 (5h 58m)

小工具

你想在你的网站上有一个关于Aérodrome d'Andernos的当前航空天气(METAR)的小部件吗?

</> 显示HTML代码

我们和第三方通过cookies跟踪您在我们网站上的上网行为。如果您继续,我们认为您同意我们的cookie政策。 了解更多